createdAt,value
2022-12-18T00:02:41.797Z,6.00
2022-12-18T00:05:50.754Z,5.87
2022-12-18T00:08:52.462Z,12.57
2022-12-18T00:11:54.112Z,13.20
2022-12-18T00:14:55.678Z,5.63
2022-12-18T00:17:57.239Z,6.40
2022-12-18T00:21:02.746Z,6.23
2022-12-18T00:24:04.472Z,5.97
2022-12-18T00:27:06.121Z,5.90
2022-12-18T00:30:08.180Z,5.67
2022-12-18T00:33:09.891Z,6.27
2022-12-18T00:36:12.964Z,7.93
2022-12-18T00:39:14.549Z,5.67
2022-12-18T00:42:38.360Z,5.67
2022-12-18T00:45:40.393Z,6.97
2022-12-18T00:48:42.694Z,7.80
2022-12-18T00:51:44.550Z,6.17
2022-12-18T00:54:46.296Z,6.10
2022-12-18T00:57:47.952Z,5.60
2022-12-18T01:00:49.626Z,9.00
2022-12-18T01:03:51.724Z,9.90
2022-12-18T01:06:55.272Z,6.83
2022-12-18T01:09:56.912Z,7.83
2022-12-18T01:12:58.566Z,11.47
2022-12-18T01:16:00.272Z,7.70
2022-12-18T01:19:02.035Z,9.37
2022-12-18T01:22:04.296Z,11.13
2022-12-18T01:25:06.611Z,8.00
2022-12-18T01:28:08.176Z,7.40
2022-12-18T01:31:10.671Z,7.30
2022-12-18T01:34:12.306Z,7.30
2022-12-18T01:37:13.902Z,8.97
2022-12-18T01:40:15.472Z,10.53
2022-12-18T01:43:17.220Z,8.57
2022-12-18T01:46:19.763Z,10.70
2022-12-18T01:49:21.378Z,13.73
2022-12-18T01:52:23.488Z,11.77
2022-12-18T01:55:27.238Z,13.43
2022-12-18T01:58:51.903Z,12.20
2022-12-18T02:01:53.723Z,10.57
2022-12-18T02:04:55.558Z,10.43
2022-12-18T02:08:10.489Z,10.67
2022-12-18T02:11:17.125Z,8.97
2022-12-18T02:14:19.382Z,10.13
2022-12-18T02:17:30.229Z,9.87
2022-12-18T02:20:34.882Z,14.00
2022-12-18T02:23:52.281Z,8.63
2022-12-18T02:26:59.734Z,11.70
2022-12-18T02:30:05.059Z,11.50
2022-12-18T02:33:08.446Z,10.73
2022-12-18T02:36:11.795Z,11.27
2022-12-18T02:39:14.355Z,11.93
2022-12-18T02:42:25.194Z,13.17
2022-12-18T02:45:27.281Z,11.97
2022-12-18T02:48:32.121Z,12.33
2022-12-18T02:51:40.750Z,12.20
2022-12-18T02:54:51.729Z,13.67
2022-12-18T02:58:20.172Z,12.63
2022-12-18T03:01:37.876Z,11.83
2022-12-18T03:04:59.933Z,14.33
2022-12-18T03:08:09.016Z,15.03
2022-12-18T03:11:14.269Z,12.53
2022-12-18T03:14:18.541Z,72.23
2022-12-18T03:17:23.542Z,15.83
2022-12-18T03:20:28.101Z,15.27
2022-12-18T03:23:32.475Z,16.63
2022-12-18T03:26:36.357Z,17.30
2022-12-18T03:29:50.014Z,13.83
2022-12-18T03:33:14.180Z,17.73
2022-12-18T03:36:19.886Z,25.80
2022-12-18T03:39:22.671Z,15.07
2022-12-18T03:42:33.816Z,16.43
2022-12-18T03:45:51.892Z,14.93
2022-12-18T03:48:57.389Z,17.30
2022-12-18T03:52:33.046Z,18.67
2022-12-18T03:55:35.789Z,16.00
2022-12-18T03:58:41.455Z,13.53
2022-12-18T04:01:57.409Z,15.00
2022-12-18T04:05:01.238Z,18.47
2022-12-18T04:08:03.045Z,18.90
2022-12-18T04:11:06.416Z,18.47
2022-12-18T04:14:11.851Z,23.20
2022-12-18T04:17:16.506Z,22.27
2022-12-18T04:20:18.656Z,22.23
2022-12-18T04:23:20.874Z,24.07
2022-12-18T04:26:23.936Z,23.97
2022-12-18T04:29:39.276Z,25.53
2022-12-18T04:32:40.931Z,23.97
2022-12-18T04:35:44.134Z,25.27
2022-12-18T04:38:45.945Z,22.47
2022-12-18T04:41:50.733Z,22.17
2022-12-18T04:44:52.798Z,24.20
2022-12-18T04:47:54.459Z,27.43
2022-12-18T04:50:56.189Z,25.27
2022-12-18T04:53:57.795Z,26.63
2022-12-18T04:56:59.399Z,24.03
2022-12-18T05:00:01.904Z,21.70
2022-12-18T05:03:04.020Z,25.93
2022-12-18T05:06:06.069Z,26.17
2022-12-18T05:09:07.728Z,29.37
2022-12-18T05:12:09.406Z,31.67
2022-12-18T05:15:11.017Z,29.80
2022-12-18T05:18:12.636Z,30.47
2022-12-18T05:21:14.318Z,26.60
2022-12-18T05:24:15.985Z,27.13
2022-12-18T05:27:18.795Z,26.93
2022-12-18T05:30:20.397Z,26.80
2022-12-18T05:33:22.789Z,25.43
2022-12-18T05:36:24.450Z,30.17
2022-12-18T05:39:26.048Z,30.30
2022-12-18T05:42:27.627Z,33.00
2022-12-18T05:45:29.230Z,35.47
2022-12-18T05:48:30.823Z,36.37
2022-12-18T05:51:32.531Z,35.17
2022-12-18T05:54:34.227Z,33.90
2022-12-18T05:57:35.784Z,35.10
2022-12-18T06:00:40.947Z,35.97
2022-12-18T06:03:42.950Z,33.87
2022-12-18T06:06:45.917Z,37.13
2022-12-18T06:09:47.524Z,35.47
2022-12-18T06:12:49.211Z,33.00
2022-12-18T06:15:50.842Z,24.13
2022-12-18T06:18:52.502Z,25.40
2022-12-18T06:21:54.250Z,22.03
2022-12-18T06:24:55.885Z,34.53
2022-12-18T06:27:57.480Z,38.57
2022-12-18T06:30:59.091Z,27.00
2022-12-18T06:34:03.267Z,25.07
2022-12-18T06:37:05.598Z,26.47
2022-12-18T06:40:07.726Z,31.70
2022-12-18T06:43:09.327Z,30.03
2022-12-18T06:46:11.354Z,24.07
2022-12-18T06:49:13.499Z,30.20
2022-12-18T06:52:18.583Z,29.47
2022-12-18T06:55:20.138Z,26.53
2022-12-18T06:58:21.787Z,31.23
2022-12-18T07:01:23.868Z,34.43
2022-12-18T07:04:29.783Z,33.43
2022-12-18T07:07:31.425Z,22.40
2022-12-18T07:10:33.048Z,24.17
2022-12-18T07:13:34.635Z,22.33
2022-12-18T07:16:36.243Z,31.07
2022-12-18T07:19:38.358Z,31.57
2022-12-18T07:22:39.942Z,22.17
2022-12-18T07:25:43.714Z,21.40
2022-12-18T07:28:45.817Z,20.17
2022-12-18T07:31:50.501Z,29.63
2022-12-18T07:34:52.084Z,20.90
2022-12-18T07:37:53.741Z,21.37
2022-12-18T07:40:55.440Z,26.23
2022-12-18T07:43:57.146Z,22.93
2022-12-18T07:46:58.781Z,36.33
2022-12-18T07:50:00.414Z,25.03
2022-12-18T07:53:04.624Z,29.00
2022-12-18T07:59:29.306Z,31.70
2022-12-18T08:02:36.677Z,23.60
2022-12-18T08:05:38.391Z,25.60
2022-12-18T08:08:41.660Z,28.17
2022-12-18T08:11:43.472Z,37.83
2022-12-18T08:14:45.287Z,36.83
2022-12-18T08:17:46.906Z,28.33
2022-12-18T08:20:48.596Z,32.20
2022-12-18T08:23:51.525Z,30.97
2022-12-18T08:27:20.853Z,38.33
2022-12-18T08:30:15.132Z,34.50
2022-12-18T08:33:16.729Z,25.20
2022-12-18T08:36:18.707Z,23.67
2022-12-18T08:39:20.370Z,23.03
2022-12-18T08:42:40.407Z,24.40
2022-12-18T08:45:42.034Z,21.87
2022-12-18T08:48:43.723Z,23.67
2022-12-18T08:51:45.356Z,33.63
2022-12-18T08:54:46.936Z,26.33
2022-12-18T08:57:51.591Z,28.80
2022-12-18T09:00:53.203Z,18.60
2022-12-18T09:03:55.060Z,19.83
2022-12-18T09:06:56.700Z,15.93
2022-12-18T09:09:58.298Z,24.50
2022-12-18T09:12:59.887Z,28.10
2022-12-18T09:16:04.098Z,22.90
2022-12-18T09:19:06.501Z,15.43
2022-12-18T09:22:08.119Z,19.17
2022-12-18T09:25:09.842Z,29.10
2022-12-18T09:28:13.032Z,22.80
2022-12-18T09:31:15.300Z,30.30
2022-12-18T09:34:17.738Z,29.93
2022-12-18T09:37:19.478Z,21.63
2022-12-18T09:40:23.185Z,23.73
2022-12-18T09:43:30.770Z,21.23
2022-12-18T09:46:38.942Z,17.23
2022-12-18T09:49:42.987Z,25.73
2022-12-18T09:52:50.237Z,21.90
2022-12-18T09:55:53.145Z,20.87
2022-12-18T09:59:04.506Z,29.50
2022-12-18T10:02:16.911Z,29.80
2022-12-18T10:05:22.084Z,22.73
2022-12-18T10:08:30.896Z,20.67
2022-12-18T10:11:40.102Z,16.93
2022-12-18T10:15:00.624Z,22.00
2022-12-18T10:18:02.213Z,16.10
2022-12-18T10:21:08.145Z,19.53
2022-12-18T10:24:10.313Z,14.77
2022-12-18T10:27:16.219Z,22.33
2022-12-18T10:30:19.245Z,17.20
2022-12-18T10:33:22.601Z,17.63
2022-12-18T10:36:24.918Z,14.57
2022-12-18T10:39:29.939Z,19.53
2022-12-18T10:42:32.056Z,12.37
2022-12-18T10:45:33.636Z,16.37
2022-12-18T10:48:55.612Z,13.30
2022-12-18T10:52:12.547Z,14.07
2022-12-18T10:55:17.126Z,20.83
2022-12-18T10:58:30.626Z,10.40
2022-12-18T11:01:47.068Z,9.30
2022-12-18T11:04:52.684Z,11.30
2022-12-18T11:07:57.375Z,11.80
2022-12-18T11:10:59.034Z,16.60
2022-12-18T11:14:05.261Z,15.60
2022-12-18T11:17:26.864Z,15.20
2022-12-18T11:20:32.847Z,11.70
2022-12-18T11:23:35.153Z,16.70
2022-12-18T11:26:37.230Z,14.47
2022-12-18T11:29:46.221Z,16.03
2022-12-18T11:32:49.826Z,12.53
2022-12-18T11:36:00.188Z,17.50
2022-12-18T11:39:04.474Z,19.97
2022-12-18T11:42:10.999Z,13.60
2022-12-18T11:45:12.707Z,10.87
2022-12-18T11:48:23.404Z,12.87
2022-12-18T11:51:33.281Z,11.70
2022-12-18T11:54:34.905Z,15.60
2022-12-18T11:57:55.042Z,14.53
2022-12-18T12:00:56.627Z,18.40
2022-12-18T12:04:21.515Z,21.90
2022-12-18T12:07:43.337Z,15.47
2022-12-18T12:11:20.411Z,12.50
2022-12-18T12:14:33.516Z,19.90
2022-12-18T12:17:44.314Z,13.27
2022-12-18T12:20:45.912Z,16.57
2022-12-18T12:24:02.936Z,12.23
2022-12-18T12:27:12.123Z,10.23
2022-12-18T12:30:21.691Z,14.07
2022-12-18T12:33:36.237Z,14.93
2022-12-18T12:36:44.261Z,13.70
2022-12-18T12:39:47.683Z,14.10
2022-12-18T12:43:11.669Z,13.27
2022-12-18T12:46:15.365Z,13.53
2022-12-18T12:49:19.217Z,18.17
2022-12-18T12:52:38.427Z,16.17
2022-12-18T12:55:41.279Z,25.23
2022-12-18T12:58:42.870Z,15.00
2022-12-18T13:02:07.772Z,13.47
2022-12-18T13:05:28.222Z,14.97
2022-12-18T13:08:31.127Z,15.20
2022-12-18T13:12:00.031Z,21.50
2022-12-18T13:15:22.132Z,20.67
2022-12-18T13:18:24.126Z,23.73
2022-12-18T13:21:28.443Z,17.13
2022-12-18T13:24:31.853Z,14.50
2022-12-18T13:27:46.269Z,12.13
2022-12-18T13:30:53.281Z,17.50
2022-12-18T13:34:27.811Z,23.37
2022-12-18T13:37:33.618Z,26.00
2022-12-18T13:40:41.303Z,15.00
2022-12-18T13:43:49.091Z,16.87
2022-12-18T13:46:51.746Z,26.20
2022-12-18T13:49:53.718Z,27.80
2022-12-18T13:52:55.341Z,22.87
2022-12-18T13:55:57.438Z,19.30
2022-12-18T13:59:28.344Z,18.77
2022-12-18T14:02:30.249Z,22.83
2022-12-18T14:05:33.692Z,23.13
2022-12-18T14:08:42.022Z,17.30
2022-12-18T14:11:48.226Z,17.73
2022-12-18T14:14:53.481Z,20.87
2022-12-18T14:18:02.083Z,15.97
2022-12-18T14:21:05.117Z,38.30
2022-12-18T14:24:09.965Z,15.73
2022-12-18T14:27:24.197Z,16.93
2022-12-18T14:30:39.287Z,13.67
2022-12-18T14:33:41.343Z,15.50
2022-12-18T14:36:52.571Z,14.03
2022-12-18T14:39:58.176Z,11.50
2022-12-18T14:42:59.811Z,15.63
2022-12-18T14:46:02.733Z,20.23
2022-12-18T14:49:23.066Z,16.20
2022-12-18T14:52:29.102Z,24.80
2022-12-18T14:55:30.790Z,28.37
2022-12-18T14:58:32.644Z,27.03
2022-12-18T15:01:36.245Z,22.37
2022-12-18T15:04:42.991Z,22.20
2022-12-18T15:07:47.772Z,25.33
2022-12-18T15:10:49.683Z,22.80
2022-12-18T15:13:51.274Z,28.33
2022-12-18T15:16:54.635Z,30.53
2022-12-18T15:20:01.243Z,34.70
2022-12-18T15:23:02.902Z,24.33
2022-12-18T15:26:10.031Z,24.23
2022-12-18T15:29:22.799Z,31.27
2022-12-18T15:32:24.376Z,24.70
2022-12-18T15:35:25.995Z,26.73
2022-12-18T15:38:28.034Z,22.90
2022-12-18T15:41:31.863Z,22.40
2022-12-18T15:44:35.020Z,31.97
2022-12-18T15:47:36.640Z,56.13
2022-12-18T15:50:38.201Z,32.43
2022-12-18T15:53:40.297Z,25.60
2022-12-18T15:57:00.616Z,23.83
2022-12-18T16:00:02.416Z,18.17
2022-12-18T16:03:07.163Z,28.43
2022-12-18T16:06:09.969Z,24.17
2022-12-18T16:09:11.726Z,17.47
2022-12-18T16:12:18.128Z,17.33
2022-12-18T16:15:24.488Z,14.17
2022-12-18T16:18:26.435Z,19.73
2022-12-18T16:21:33.701Z,16.10
2022-12-18T16:24:37.323Z,17.80
2022-12-18T16:27:38.966Z,15.93
2022-12-18T16:30:41.316Z,15.73
2022-12-18T16:33:43.402Z,18.60
2022-12-18T16:36:45.466Z,18.60
2022-12-18T16:39:47.062Z,16.37
2022-12-18T16:42:48.808Z,17.10
2022-12-18T16:45:50.416Z,23.77
2022-12-18T16:48:53.415Z,24.33
2022-12-18T16:51:55.038Z,21.83
2022-12-18T16:54:56.972Z,23.17
2022-12-18T16:57:58.597Z,22.97
2022-12-18T17:01:00.510Z,78.43
2022-12-18T17:04:03.175Z,25.77
2022-12-18T17:07:04.865Z,22.47
2022-12-18T17:10:06.716Z,25.40
2022-12-18T17:13:08.341Z,26.33
2022-12-18T17:16:09.960Z,30.30
2022-12-18T17:19:16.779Z,24.77
2022-12-18T17:22:19.065Z,24.27
2022-12-18T17:25:20.672Z,22.03
2022-12-18T17:28:22.458Z,24.03
2022-12-18T17:31:25.177Z,33.03
2022-12-18T17:34:26.839Z,29.80
2022-12-18T17:37:28.426Z,27.60
2022-12-18T17:40:32.463Z,26.10
2022-12-18T17:43:39.817Z,24.60
2022-12-18T17:46:41.998Z,23.50
2022-12-18T17:49:43.961Z,23.90
2022-12-18T17:52:45.573Z,19.47
2022-12-18T17:56:01.468Z,18.67
2022-12-18T17:59:04.114Z,21.03
2022-12-18T18:02:05.875Z,18.97
2022-12-18T18:05:08.324Z,22.20
2022-12-18T18:08:13.670Z,22.97
2022-12-18T18:11:35.505Z,23.77
2022-12-18T18:14:37.595Z,21.27
2022-12-18T18:17:39.376Z,35.50
2022-12-18T18:20:41.017Z,30.43
2022-12-18T18:23:44.163Z,27.73
2022-12-18T18:26:47.532Z,31.40
2022-12-18T18:29:49.169Z,29.00
2022-12-18T18:32:50.766Z,37.13
2022-12-18T18:35:55.008Z,35.00
2022-12-18T18:38:58.273Z,34.67
2022-12-18T18:41:59.874Z,33.07
2022-12-18T18:45:01.449Z,37.77
2022-12-18T18:48:03.052Z,29.97
2022-12-18T18:51:09.533Z,45.50
2022-12-18T18:54:13.125Z,29.53
2022-12-18T18:57:26.291Z,25.70
2022-12-18T19:00:30.427Z,35.23
2022-12-18T19:03:35.219Z,35.80
2022-12-18T19:06:36.889Z,33.37
2022-12-18T19:09:39.063Z,26.03
2022-12-18T19:12:59.414Z,28.37
2022-12-18T19:16:05.407Z,27.47
2022-12-18T19:19:07.574Z,32.40
2022-12-18T19:22:09.695Z,30.77
2022-12-18T19:25:11.573Z,36.77
2022-12-18T19:28:16.426Z,29.90
2022-12-18T19:31:27.022Z,26.53
2022-12-18T19:34:29.932Z,25.17
2022-12-18T19:37:31.708Z,26.63
2022-12-18T19:40:33.643Z,29.77
2022-12-18T19:43:39.448Z,33.53
2022-12-18T19:46:46.377Z,29.37
2022-12-18T19:49:51.607Z,32.10
2022-12-18T19:52:53.467Z,33.53
2022-12-18T19:55:55.544Z,29.93
2022-12-18T19:58:58.823Z,32.03
2022-12-18T20:02:00.621Z,36.17
2022-12-18T20:05:04.409Z,47.37
2022-12-18T20:08:08.281Z,30.17
2022-12-18T20:11:09.971Z,44.00
2022-12-18T20:14:12.366Z,30.20
2022-12-18T20:17:14.040Z,31.63
2022-12-18T20:20:15.701Z,30.87
2022-12-18T20:23:18.371Z,30.27
2022-12-18T20:26:20.083Z,30.70
2022-12-18T20:29:21.882Z,29.27
2022-12-18T20:32:23.505Z,26.57
2022-12-18T20:35:28.177Z,25.83
2022-12-18T20:38:30.620Z,25.57
2022-12-18T20:41:37.371Z,24.93
2022-12-18T20:44:40.206Z,27.53
2022-12-18T20:47:41.855Z,27.33
2022-12-18T20:50:43.580Z,30.07
2022-12-18T20:53:46.037Z,31.00
2022-12-18T20:56:48.024Z,28.73
2022-12-18T20:59:49.589Z,27.40
2022-12-18T21:02:51.318Z,31.43
2022-12-18T21:05:53.342Z,26.63
2022-12-18T21:08:54.957Z,25.70
2022-12-18T21:12:15.297Z,36.03
2022-12-18T21:15:16.915Z,29.67
2022-12-18T21:18:18.585Z,29.83
2022-12-18T21:21:26.253Z,28.50
2022-12-18T21:24:32.515Z,29.67
2022-12-18T21:27:34.737Z,29.53
2022-12-18T21:30:36.598Z,31.80
2022-12-18T21:33:38.336Z,30.33
2022-12-18T21:36:40.436Z,28.57
2022-12-18T21:39:42.083Z,26.03
2022-12-18T21:43:02.531Z,29.57
2022-12-18T21:46:04.175Z,26.23
2022-12-18T21:49:06.953Z,25.80
2022-12-18T21:52:08.539Z,29.00
2022-12-18T21:55:10.513Z,29.97
2022-12-18T21:58:12.182Z,27.10
2022-12-18T22:01:13.833Z,28.17
2022-12-18T22:04:15.924Z,31.47
2022-12-18T22:07:17.667Z,31.27
2022-12-18T22:10:19.294Z,32.37
2022-12-18T22:13:20.861Z,30.13
2022-12-18T22:16:22.921Z,31.60
2022-12-18T22:19:27.652Z,33.47
2022-12-18T22:22:29.453Z,33.53
2022-12-18T22:25:31.062Z,36.13
2022-12-18T22:28:51.540Z,36.23
2022-12-18T22:31:53.099Z,29.93
2022-12-18T22:34:55.218Z,34.80
2022-12-18T22:37:58.487Z,31.27
2022-12-18T22:41:00.146Z,31.93
2022-12-18T22:44:01.729Z,33.80
2022-12-18T22:47:06.348Z,33.77
2022-12-18T22:50:10.202Z,38.07
2022-12-18T22:53:12.464Z,35.93
2022-12-18T22:56:20.139Z,35.57
2022-12-18T22:59:23.511Z,34.07
2022-12-18T23:02:25.392Z,37.33
2022-12-18T23:05:27.247Z,33.13
2022-12-18T23:08:28.854Z,37.57
2022-12-18T23:11:33.008Z,36.00
2022-12-18T23:14:34.564Z,37.87
2022-12-18T23:17:36.644Z,34.37
2022-12-18T23:20:38.305Z,37.43
2022-12-18T23:23:40.369Z,36.73
2022-12-18T23:26:42.059Z,35.87
2022-12-18T23:29:43.649Z,36.70
2022-12-18T23:32:47.307Z,37.27
2022-12-18T23:35:48.924Z,37.20
2022-12-18T23:38:51.598Z,36.77
2022-12-18T23:41:53.218Z,36.17
2022-12-18T23:44:54.864Z,36.00
2022-12-18T23:47:58.650Z,35.63
2022-12-18T23:51:04.277Z,42.07
2022-12-18T23:54:06.003Z,38.73
2022-12-18T23:57:07.619Z,34.73
